Time;durP1;ratioP1;P1;durP2;ratioP2;P2;SDS_P1;SDS_P2;PMS_P1;PMS_P2;Temp;Humidity;BMP_temperature;BMP_pressure;BME280_temperature;BME280_humidity;BME280_pressure;Samples;Min_cycle;Max_cycle;Signal;HPM_P1;HPM_P2
2021/08/24 00:00:29;;;;;;;;;13.75;13.75;;;;;;;;5058003;28;9549;-78
2021/08/24 00:02:57;;;;;;;;;15.25;13.50;;;;;;;;5058863;28;8836;-81
2021/08/24 00:05:27;;;;;;;;;16.50;16.50;;;;;;;;5079387;28;8865;-78
2021/08/24 00:07:56;;;;;;;;;13.75;13.75;;;;;;;;5054303;28;8835;-81
2021/08/24 00:10:24;;;;;;;;;12.50;12.50;;;;;;;;5061621;28;8876;-79
2021/08/24 00:12:52;;;;;;;;;14.50;13.50;;;;;;;;5058609;28;8898;-78
2021/08/24 00:15:22;;;;;;;;;19.00;16.50;;;;;;;;5069212;28;8878;-80
2021/08/24 00:17:49;;;;;;;;;15.75;14.00;;;;;;;;5065824;28;9605;-78
2021/08/24 00:20:17;;;;;;;;;18.75;18.50;;;;;;;;5081144;28;9447;-76
2021/08/24 00:22:44;;;;;;;;;15.75;15.00;;;;;;;;5072107;28;8868;-78
2021/08/24 00:25:14;;;;;;;;;16.50;16.50;;;;;;;;5068794;28;8887;-82
2021/08/24 00:27:41;;;;;;;;;16.00;16.00;;;;;;;;5057732;28;8870;-77
2021/08/24 00:30:10;;;;;;;;;18.75;16.50;;;;;;;;5060606;28;8877;-81
2021/08/24 00:32:39;;;;;;;;;17.00;16.00;;;;;;;;5051518;28;8851;-79
2021/08/24 00:35:07;;;;;;;;;14.50;14.50;;;;;;;;5079456;28;8860;-80
2021/08/24 00:37:34;;;;;;;;;12.00;12.00;;;;;;;;5064858;28;8868;-78
2021/08/24 00:40:03;;;;;;;;;16.75;16.00;;;;;;;;5060808;28;8897;-77
2021/08/24 00:42:30;;;;;;;;;17.00;16.00;;;;;;;;5072358;28;9015;-77
2021/08/24 00:44:58;;;;;;;;;18.75;16.75;;;;;;;;5065321;28;8894;-81
2021/08/24 00:47:27;;;;;;;;;13.25;12.50;;;;;;;;5060635;28;8871;-81
2021/08/24 00:50:00;;;;;;;;;17.50;15.75;;;;;;;;5068378;28;8894;-77
2021/08/24 00:52:28;;;;;;;;;18.75;17.25;;;;;;;;5057889;28;9673;-78
2021/08/24 00:54:56;;;;;;;;;19.25;18.25;;;;;;;;5065237;28;8957;-77
2021/08/24 00:57:25;;;;;;;;;21.25;20.50;;;;;;;;5056447;28;8854;-79
2021/08/24 00:59:55;;;;;;;;;16.00;14.25;;;;;;;;5051377;28;9617;-80
2021/08/24 01:02:25;;;;;;;;;21.00;19.50;;;;;;;;5056197;28;8831;-81
2021/08/24 01:04:53;;;;;;;;;16.75;16.75;;;;;;;;5051296;28;8925;-81
2021/08/24 01:07:25;;;;;;;;;18.75;17.75;;;;;;;;5054439;28;9678;-80
2021/08/24 01:09:59;;;;;;;;;20.50;18.00;;;;;;;;5046299;28;8878;-78
2021/08/24 01:12:36;;;;;;;;;17.00;16.50;;;;;;;;5076321;28;8979;-79
2021/08/24 01:15:13;;;;;;;;;18.75;18.75;;;;;;;;5066763;28;8860;-76
2021/08/24 01:17:44;;;;;;;;;20.75;18.00;;;;;;;;5073362;28;8856;-77
2021/08/24 01:20:27;;;;;;;;;19.25;15.75;;;;;;;;5063196;28;8891;-83
2021/08/24 01:23:32;;;;;;;;;19.00;18.25;;;;;;;;5059535;28;8861;-80
2021/08/24 01:26:05;;;;;;;;;18.25;17.25;;;;;;;;5041621;28;8848;-77
2021/08/24 01:28:41;;;;;;;;;17.50;16.00;;;;;;;;5054944;28;8859;-81
2021/08/24 01:31:42;;;;;;;;;21.25;18.00;;;;;;;;5072657;28;9620;-79
2021/08/24 01:34:20;;;;;;;;;18.25;16.75;;;;;;;;5052672;28;8867;-82
2021/08/24 01:36:52;;;;;;;;;16.75;16.75;;;;;;;;5077491;28;8864;-80
2021/08/24 01:39:26;;;;;;;;;24.75;18.25;;;;;;;;5054945;28;8839;-81
2021/08/24 01:42:07;;;;;;;;;18.50;16.75;;;;;;;;5059980;28;8876;-80
2021/08/24 01:44:38;;;;;;;;;20.25;18.00;;;;;;;;5069455;28;8884;-75
2021/08/24 01:47:11;;;;;;;;;25.25;21.75;;;;;;;;5051301;28;8932;-75
2021/08/24 01:49:43;;;;;;;;;17.50;17.50;;;;;;;;5069112;28;9730;-81
2021/08/24 01:52:16;;;;;;;;;22.50;21.00;;;;;;;;5059466;28;8922;-78
2021/08/24 01:54:47;;;;;;;;;16.75;16.75;;;;;;;;5072628;28;8878;-77
2021/08/24 01:57:20;;;;;;;;;17.00;15.50;;;;;;;;5060856;28;8972;-78
2021/08/24 01:59:51;;;;;;;;;22.75;21.50;;;;;;;;5070834;28;9005;-80
2021/08/24 02:02:25;;;;;;;;;17.00;15.50;;;;;;;;5048953;28;8804;-80
2021/08/24 02:04:56;;;;;;;;;24.75;19.75;;;;;;;;5064766;28;8917;-80
2021/08/24 02:07:27;;;;;;;;;21.00;19.75;;;;;;;;5055150;28;8861;-81
2021/08/24 02:09:59;;;;;;;;;23.00;23.00;;;;;;;;5056580;28;8860;-79
2021/08/24 02:12:28;;;;;;;;;23.75;23.75;;;;;;;;5051391;28;8864;-77
2021/08/24 02:14:55;;;;;;;;;26.75;25.25;;;;;;;;5064466;28;8864;-79
2021/08/24 02:17:24;;;;;;;;;24.75;23.25;;;;;;;;5063023;28;8872;-76
2021/08/24 02:19:54;;;;;;;;;24.75;23.25;;;;;;;;5064510;28;8872;-78
2021/08/24 02:22:27;;;;;;;;;24.50;23.00;;;;;;;;5061497;28;8833;-81
2021/08/24 02:24:58;;;;;;;;;23.50;21.25;;;;;;;;5063262;28;8922;-81
2021/08/24 02:27:29;;;;;;;;;22.75;22.75;;;;;;;;5062747;28;8870;-78
2021/08/24 02:29:57;;;;;;;;;23.75;21.50;;;;;;;;5055538;28;8875;-76
2021/08/24 02:32:28;;;;;;;;;20.25;19.50;;;;;;;;5053951;28;8826;-76
2021/08/24 02:35:00;;;;;;;;;22.25;22.25;;;;;;;;5055543;28;8844;-80
2021/08/24 02:37:31;;;;;;;;;25.25;23.50;;;;;;;;5063804;28;8876;-78
2021/08/24 02:40:06;;;;;;;;;25.75;25.50;;;;;;;;5052236;28;9709;-77
2021/08/24 02:42:38;;;;;;;;;23.75;22.00;;;;;;;;5046563;28;8855;-80
2021/08/24 02:45:09;;;;;;;;;22.00;22.00;;;;;;;;5064376;28;8991;-81
2021/08/24 02:47:39;;;;;;;;;24.75;22.50;;;;;;;;5063161;28;8880;-78
2021/08/24 02:50:08;;;;;;;;;25.25;21.75;;;;;;;;5055063;28;8893;-80
2021/08/24 02:52:39;;;;;;;;;24.50;24.50;;;;;;;;5066402;28;8838;-80
2021/08/24 02:55:08;;;;;;;;;28.50;25.00;;;;;;;;5071882;28;8872;-80
2021/08/24 02:57:36;;;;;;;;;25.00;23.50;;;;;;;;5057573;28;8843;-81
2021/08/24 03:00:03;;;;;;;;;23.50;21.75;;;;;;;;5058512;28;8910;-79
2021/08/24 03:02:31;;;;;;;;;27.75;23.00;;;;;;;;5054348;28;8820;-81
2021/08/24 03:04:58;;;;;;;;;26.75;26.00;;;;;;;;5056764;28;8948;-77
2021/08/24 03:07:28;;;;;;;;;26.50;23.25;;;;;;;;5045997;28;8847;-78
2021/08/24 03:09:58;;;;;;;;;26.25;26.25;;;;;;;;5054174;28;8857;-78
2021/08/24 03:12:32;;;;;;;;;24.75;21.75;;;;;;;;5068549;28;9006;-81
2021/08/24 03:15:05;;;;;;;;;22.25;22.25;;;;;;;;5054190;28;9014;-79
2021/08/24 03:17:37;;;;;;;;;22.50;20.50;;;;;;;;5052387;28;8987;-78
2021/08/24 03:20:07;;;;;;;;;22.00;21.50;;;;;;;;5067418;28;8925;-80
2021/08/24 03:22:35;;;;;;;;;23.50;23.50;;;;;;;;5064253;28;8864;-79
2021/08/24 03:25:06;;;;;;;;;25.25;25.25;;;;;;;;5056752;28;8872;-79
2021/08/24 03:27:34;;;;;;;;;24.25;20.75;;;;;;;;5058084;28;9003;-80
2021/08/24 03:30:05;;;;;;;;;24.50;21.25;;;;;;;;5066914;28;8998;-79
2021/08/24 03:32:32;;;;;;;;;26.25;23.75;;;;;;;;5060559;28;8813;-82
2021/08/24 03:35:00;;;;;;;;;24.75;24.00;;;;;;;;5071989;28;8858;-81
2021/08/24 03:37:27;;;;;;;;;24.00;23.75;;;;;;;;5067673;28;8856;-79
2021/08/24 03:39:54;;;;;;;;;23.50;23.25;;;;;;;;5076993;28;8855;-76
2021/08/24 03:42:23;;;;;;;;;17.75;17.75;;;;;;;;5052554;28;8893;-83
2021/08/24 03:44:51;;;;;;;;;23.25;23.25;;;;;;;;5061934;28;8862;-81
2021/08/24 03:47:18;;;;;;;;;22.50;20.75;;;;;;;;5059982;28;8904;-81
2021/08/24 03:49:45;;;;;;;;;24.00;22.25;;;;;;;;5064184;28;9009;-80
2021/08/24 03:52:13;;;;;;;;;21.25;20.75;;;;;;;;5050259;28;8871;-82
2021/08/24 03:54:40;;;;;;;;;24.75;23.75;;;;;;;;5075133;28;8866;-79
2021/08/24 03:57:07;;;;;;;;;20.25;20.25;;;;;;;;5068851;28;8867;-77
2021/08/24 03:59:36;;;;;;;;;25.50;23.75;;;;;;;;5057286;28;8863;-79
2021/08/24 04:02:05;;;;;;;;;21.50;20.00;;;;;;;;5052042;28;8788;-77
2021/08/24 04:04:32;;;;;;;;;24.75;24.75;;;;;;;;5062249;28;8897;-78
2021/08/24 04:07:00;;;;;;;;;23.00;21.75;;;;;;;;5060397;28;9009;-79
2021/08/24 04:09:27;;;;;;;;;21.50;19.25;;;;;;;;5055316;28;8852;-85
2021/08/24 04:11:55;;;;;;;;;22.25;21.00;;;;;;;;5062565;28;9533;-81
2021/08/24 04:14:22;;;;;;;;;28.75;24.75;;;;;;;;5055039;28;8872;-84
2021/08/24 04:16:51;;;;;;;;;21.50;21.50;;;;;;;;5067249;28;8862;-80
2021/08/24 04:19:18;;;;;;;;;23.25;23.25;;;;;;;;5067414;28;8860;-83
2021/08/24 04:21:45;;;;;;;;;23.25;21.25;;;;;;;;5070409;28;8870;-83
2021/08/24 04:24:13;;;;;;;;;22.25;22.25;;;;;;;;5062709;28;8860;-84
2021/08/24 04:26:40;;;;;;;;;23.50;23.50;;;;;;;;5062103;28;8998;-84
2021/08/24 04:29:08;;;;;;;;;18.25;17.50;;;;;;;;5059457;28;9015;-84
2021/08/24 04:31:37;;;;;;;;;19.00;16.50;;;;;;;;5054431;28;8840;-83
2021/08/24 04:34:06;;;;;;;;;16.25;16.25;;;;;;;;5060913;28;8880;-78
2021/08/24 04:36:34;;;;;;;;;25.25;21.75;;;;;;;;5063660;28;8875;-75
2021/08/24 04:39:01;;;;;;;;;23.75;20.75;;;;;;;;5074397;28;8862;-76
2021/08/24 04:41:31;;;;;;;;;30.25;22.75;;;;;;;;5067567;28;8872;-76
2021/08/24 04:43:58;;;;;;;;;27.00;23.50;;;;;;;;5059705;28;9644;-76
2021/08/24 04:46:25;;;;;;;;;25.75;22.50;;;;;;;;5060434;28;9562;-79
2021/08/24 04:48:53;;;;;;;;;22.50;20.50;;;;;;;;5069748;28;8865;-82
2021/08/24 04:51:21;;;;;;;;;22.00;21.00;;;;;;;;5062821;28;8876;-84
2021/08/24 04:53:49;;;;;;;;;22.50;21.75;;;;;;;;5078744;28;8989;-83
2021/08/24 04:56:16;;;;;;;;;20.50;20.50;;;;;;;;5060170;28;8942;-84
2021/08/24 04:58:43;;;;;;;;;22.75;22.75;;;;;;;;5056389;28;8876;-77
2021/08/24 05:01:10;;;;;;;;;25.25;23.00;;;;;;;;5055865;28;8823;-75
2021/08/24 05:03:38;;;;;;;;;22.75;22.75;;;;;;;;5064822;28;8845;-82
2021/08/24 05:06:05;;;;;;;;;23.25;21.25;;;;;;;;5060456;28;9452;-83
2021/08/24 05:08:34;;;;;;;;;21.00;20.25;;;;;;;;5072211;28;8881;-78
2021/08/24 05:11:01;;;;;;;;;23.75;23.75;;;;;;;;5058302;28;8881;-84
2021/08/24 05:13:29;;;;;;;;;25.25;24.00;;;;;;;;5096273;27;8926;-81
2021/08/24 05:15:56;;;;;;;;;27.25;25.00;;;;;;;;5068483;28;8989;-79
2021/08/24 05:18:23;;;;;;;;;25.50;25.50;;;;;;;;5071235;28;8874;-81
2021/08/24 05:20:50;;;;;;;;;28.50;25.25;;;;;;;;5058403;28;8888;-84
2021/08/24 05:23:17;;;;;;;;;24.00;21.50;;;;;;;;5057457;28;8905;-78
2021/08/24 05:25:47;;;;;;;;;28.00;26.50;;;;;;;;5060877;28;8876;-77
2021/08/24 05:28:14;;;;;;;;;30.00;27.75;;;;;;;;5061547;28;8868;-77
2021/08/24 05:30:42;;;;;;;;;29.00;29.00;;;;;;;;5049081;28;8851;-76
2021/08/24 05:33:09;;;;;;;;;26.25;25.25;;;;;;;;5065167;28;8910;-74
2021/08/24 05:35:36;;;;;;;;;27.50;27.25;;;;;;;;5064077;28;8955;-78
2021/08/24 05:38:03;;;;;;;;;29.50;25.75;;;;;;;;5065734;28;8844;-77
2021/08/24 05:40:31;;;;;;;;;28.00;24.50;;;;;;;;5063307;28;8967;-77
2021/08/24 05:42:59;;;;;;;;;28.50;25.50;;;;;;;;5065138;28;8872;-76
2021/08/24 05:45:27;;;;;;;;;28.75;28.25;;;;;;;;5063730;28;8906;-77
2021/08/24 05:47:54;;;;;;;;;21.00;21.00;;;;;;;;5065700;28;8909;-75
2021/08/24 05:50:24;;;;;;;;;28.00;25.00;;;;;;;;5064252;28;8862;-77
2021/08/24 05:52:52;;;;;;;;;28.75;26.25;;;;;;;;5064611;28;8995;-78
2021/08/24 05:55:19;;;;;;;;;24.75;24.75;;;;;;;;5065101;28;8859;-78
2021/08/24 05:57:47;;;;;;;;;27.75;25.00;;;;;;;;5063169;28;8874;-78
2021/08/24 06:00:16;;;;;;;;;32.50;31.50;;;;;;;;5062979;28;8975;-78
2021/08/24 06:02:43;;;;;;;;;29.75;25.75;;;;;;;;5064055;28;8900;-78
2021/08/24 06:05:11;;;;;;;;;25.25;25.00;;;;;;;;5063598;28;8890;-79
2021/08/24 06:07:39;;;;;;;;;30.00;30.00;;;;;;;;5052643;28;8852;-78
2021/08/24 06:10:07;;;;;;;;;29.50;27.50;;;;;;;;5063756;28;8899;-79
2021/08/24 06:12:35;;;;;;;;;32.00;27.75;;;;;;;;5065195;28;8876;-78
2021/08/24 06:15:02;;;;;;;;;28.50;26.25;;;;;;;;5063025;28;8876;-76
2021/08/24 06:17:30;;;;;;;;;28.00;24.00;;;;;;;;5064641;28;8884;-78
2021/08/24 06:19:58;;;;;;;;;30.50;30.00;;;;;;;;5063133;28;8903;-77
2021/08/24 06:22:25;;;;;;;;;28.00;23.25;;;;;;;;5064595;28;8868;-78
2021/08/24 06:24:52;;;;;;;;;28.00;27.00;;;;;;;;5063751;28;8870;-77
2021/08/24 06:27:20;;;;;;;;;28.25;26.25;;;;;;;;5064127;28;8864;-78
2021/08/24 06:29:47;;;;;;;;;27.25;27.00;;;;;;;;5064410;28;9606;-79
2021/08/24 06:32:27;;;;;;;;;35.25;32.25;;;;;;;;5055440;28;8827;-78
2021/08/24 06:34:56;;;;;;;;;28.50;27.00;;;;;;;;5062677;28;8860;-78
2021/08/24 06:37:23;;;;;;;;;32.25;30.75;;;;;;;;5062994;28;8860;-78
2021/08/24 06:39:50;;;;;;;;;32.25;30.75;;;;;;;;5064308;28;8896;-78
2021/08/24 06:42:18;;;;;;;;;34.25;30.75;;;;;;;;5063610;28;8853;-77
2021/08/24 06:44:45;;;;;;;;;30.50;28.25;;;;;;;;5063911;28;9606;-76
2021/08/24 06:47:13;;;;;;;;;27.50;25.75;;;;;;;;5062741;28;8926;-78
2021/08/24 06:49:40;;;;;;;;;27.75;26.75;;;;;;;;5062135;28;9626;-78
2021/08/24 06:52:09;;;;;;;;;30.00;26.50;;;;;;;;5062682;28;8856;-76
2021/08/24 06:54:36;;;;;;;;;30.00;27.25;;;;;;;;5062435;28;9750;-75
2021/08/24 06:57:05;;;;;;;;;28.25;28.00;;;;;;;;5064305;28;8878;-78
2021/08/24 06:59:38;;;;;;;;;26.00;25.75;;;;;;;;5063474;28;8857;-75
2021/08/24 07:02:07;;;;;;;;;29.75;28.25;;;;;;;;5062948;28;8817;-79
2021/08/24 07:04:34;;;;;;;;;33.00;29.50;;;;;;;;5064182;28;8844;-76
2021/08/24 07:07:01;;;;;;;;;35.50;32.00;;;;;;;;5051037;28;8924;-77
2021/08/24 07:09:31;;;;;;;;;33.50;31.50;;;;;;;;5064070;28;8900;-78
2021/08/24 07:11:58;;;;;;;;;29.00;28.75;;;;;;;;5062822;28;8876;-78
2021/08/24 07:14:25;;;;;;;;;26.75;25.25;;;;;;;;5064062;28;9015;-77
2021/08/24 07:16:52;;;;;;;;;25.75;25.75;;;;;;;;5062734;28;8906;-77
2021/08/24 07:19:20;;;;;;;;;30.50;28.75;;;;;;;;5063461;28;8884;-77
2021/08/24 07:21:47;;;;;;;;;31.50;29.50;;;;;;;;5077405;28;8888;-76
2021/08/24 07:24:14;;;;;;;;;35.25;31.00;;;;;;;;5057151;28;8906;-78
2021/08/24 07:26:43;;;;;;;;;28.50;27.50;;;;;;;;5063606;28;8872;-78
2021/08/24 07:29:11;;;;;;;;;30.75;30.50;;;;;;;;5061639;28;8890;-76
2021/08/24 07:31:38;;;;;;;;;31.00;30.50;;;;;;;;5058986;28;8813;-78
2021/08/24 07:34:06;;;;;;;;;34.25;29.25;;;;;;;;5062578;28;8929;-76
2021/08/24 07:36:33;;;;;;;;;33.50;30.25;;;;;;;;5062379;28;8888;-78
2021/08/24 07:39:01;;;;;;;;;23.50;23.50;;;;;;;;5063713;28;8872;-79
2021/08/24 07:41:28;;;;;;;;;23.25;23.25;;;;;;;;5061767;28;8860;-77
2021/08/24 07:43:57;;;;;;;;;25.00;25.00;;;;;;;;5063708;28;8979;-78
2021/08/24 07:46:24;;;;;;;;;22.25;22.25;;;;;;;;5061862;28;8979;-76
2021/08/24 07:48:51;;;;;;;;;26.25;24.00;;;;;;;;5063802;28;8868;-78
2021/08/24 07:51:21;;;;;;;;;24.00;24.00;;;;;;;;5056206;28;8936;-78
2021/08/24 07:53:48;;;;;;;;;23.00;20.25;;;;;;;;5057594;28;8897;-78
2021/08/24 07:56:15;;;;;;;;;23.00;19.50;;;;;;;;5063866;28;9002;-77
2021/08/24 07:58:43;;;;;;;;;23.25;20.50;;;;;;;;5062164;28;8888;-77
2021/08/24 08:01:11;;;;;;;;;23.25;23.00;;;;;;;;5062999;28;8808;-78
2021/08/24 08:03:39;;;;;;;;;26.50;24.75;;;;;;;;5062839;28;8880;-77
2021/08/24 08:06:06;;;;;;;;;21.00;20.75;;;;;;;;5057321;28;8874;-77
2021/08/24 08:08:33;;;;;;;;;25.00;25.00;;;;;;;;5061952;28;8864;-76
2021/08/24 08:11:01;;;;;;;;;25.00;21.00;;;;;;;;5066732;28;8884;-78
2021/08/24 08:13:29;;;;;;;;;21.50;19.50;;;;;;;;5065736;28;8913;-78
2021/08/24 08:15:57;;;;;;;;;19.25;19.25;;;;;;;;5065740;28;8864;-78
2021/08/24 08:18:26;;;;;;;;;22.50;21.00;;;;;;;;5066696;28;8884;-77
2021/08/24 08:20:53;;;;;;;;;22.50;21.00;;;;;;;;5065622;28;8965;-78
2021/08/24 08:23:22;;;;;;;;;23.00;21.75;;;;;;;;5066638;28;8876;-78
2021/08/24 08:25:50;;;;;;;;;22.25;19.25;;;;;;;;5064316;28;8955;-78
2021/08/24 08:28:17;;;;;;;;;19.50;17.50;;;;;;;;5065165;28;8918;-78
2021/08/24 08:30:46;;;;;;;;;17.40;17.00;;;;;;;;5064901;28;8788;-78
2021/08/24 08:33:14;;;;;;;;;21.20;19.20;;;;;;;;5066332;28;9022;-78
2021/08/24 08:35:42;;;;;;;;;19.20;18.20;;;;;;;;5066487;28;8925;-79
2021/08/24 08:38:10;;;;;;;;;17.00;16.00;;;;;;;;5065288;28;8965;-79
2021/08/24 08:40:46;;;;;;;;;16.20;14.40;;;;;;;;5066248;28;8887;-79
2021/08/24 08:43:23;;;;;;;;;13.80;13.80;;;;;;;;5065417;28;8864;-79
2021/08/24 08:45:52;;;;;;;;;19.80;17.60;;;;;;;;5065998;28;8879;-79
2021/08/24 08:48:31;;;;;;;;;10.60;10.60;;;;;;;;5065503;28;8852;-79
2021/08/24 08:51:06;;;;;;;;;13.20;12.20;;;;;;;;5065272;28;8868;-78
2021/08/24 08:53:38;;;;;;;;;12.80;12.40;;;;;;;;5066397;28;8880;-79
2021/08/24 08:56:12;;;;;;;;;10.80;10.20;;;;;;;;5064740;28;8904;-79
2021/08/24 08:58:45;;;;;;;;;10.80;10.80;;;;;;;;5065057;28;8890;-79
2021/08/24 09:01:16;;;;;;;;;11.00;11.00;;;;;;;;5065543;28;8777;-80
2021/08/24 09:03:48;;;;;;;;;10.40;10.40;;;;;;;;5065849;28;10062;-80
2021/08/24 09:06:19;;;;;;;;;11.40;10.80;;;;;;;;5056910;28;8880;-79
2021/08/24 09:08:48;;;;;;;;;10.00;10.00;;;;;;;;5062436;28;8856;-81
2021/08/24 09:11:15;;;;;;;;;10.80;10.80;;;;;;;;5064613;28;8868;-80
2021/08/24 09:13:48;;;;;;;;;9.00;9.00;;;;;;;;5064703;28;8860;-79
2021/08/24 09:16:26;;;;;;;;;8.00;8.00;;;;;;;;5065268;28;8892;-80
2021/08/24 09:18:56;;;;;;;;;8.00;8.00;;;;;;;;5063854;28;8882;-79
2021/08/24 09:21:27;;;;;;;;;8.80;7.00;;;;;;;;5064038;28;8880;-79
2021/08/24 09:23:56;;;;;;;;;7.80;7.60;;;;;;;;5065005;28;8869;-80
2021/08/24 09:26:52;;;;;;;;;7.60;5.80;;;;;;;;5064549;28;8864;-80
2021/08/24 09:29:22;;;;;;;;;8.80;7.60;;;;;;;;5065571;28;8921;-78
2021/08/24 09:31:49;;;;;;;;;5.40;5.40;;;;;;;;5064988;28;8889;-80
2021/08/24 09:34:18;;;;;;;;;4.80;4.80;;;;;;;;5064647;28;8910;-80
2021/08/24 09:36:47;;;;;;;;;6.60;5.80;;;;;;;;5064584;28;8876;-81
2021/08/24 09:39:14;;;;;;;;;4.20;4.20;;;;;;;;5063757;28;8852;-79
2021/08/24 09:41:49;;;;;;;;;5.60;5.60;;;;;;;;5052021;28;9439;-77
2021/08/24 09:44:22;;;;;;;;;5.60;5.60;;;;;;;;5064558;28;8891;-77
2021/08/24 09:46:51;;;;;;;;;6.60;6.60;;;;;;;;5064720;28;8852;-78
2021/08/24 09:49:36;;;;;;;;;4.60;4.60;;;;;;;;5065288;28;8864;-77
2021/08/24 09:52:08;;;;;;;;;4.60;4.60;;;;;;;;5063804;28;8887;-79
2021/08/24 09:54:41;;;;;;;;;3.80;3.80;;;;;;;;5065174;28;8887;-77
2021/08/24 09:57:18;;;;;;;;;5.40;5.40;;;;;;;;5063956;28;8876;-80
2021/08/24 09:59:55;;;;;;;;;3.20;3.20;;;;;;;;5064988;28;8863;-79
2021/08/24 10:02:34;;;;;;;;;3.00;3.00;;;;;;;;5059203;28;8803;-79
2021/08/24 10:05:03;;;;;;;;;4.20;4.20;;;;;;;;5057527;28;9752;-80
2021/08/24 10:07:34;;;;;;;;;3.40;3.40;;;;;;;;5053701;28;8900;-80
2021/08/24 10:10:02;;;;;;;;;5.00;3.80;;;;;;;;5063755;28;8868;-79
2021/08/24 10:12:33;;;;;;;;;3.00;3.00;;;;;;;;5063545;28;8868;-81
2021/08/24 10:15:19;;;;;;;;;2.80;2.80;;;;;;;;5064106;28;8844;-77
2021/08/24 10:17:47;;;;;;;;;4.40;4.40;;;;;;;;5062344;28;9689;-80
2021/08/24 10:20:22;;;;;;;;;4.00;4.00;;;;;;;;5064881;28;8872;-79
2021/08/24 10:22:53;;;;;;;;;2.80;2.80;;;;;;;;5063478;28;8864;-77
2021/08/24 10:25:23;;;;;;;;;2.80;2.80;;;;;;;;5063511;28;8876;-77
2021/08/24 10:28:00;;;;;;;;;3.60;3.60;;;;;;;;5063571;28;8864;-76
2021/08/24 10:30:41;;;;;;;;;3.00;2.80;;;;;;;;5052208;28;8825;-76
2021/08/24 10:33:18;;;;;;;;;2.80;2.80;;;;;;;;5061852;28;8891;-79
2021/08/24 10:35:53;;;;;;;;;2.80;0.60;;;;;;;;5065821;28;8860;-78
2021/08/24 10:38:44;;;;;;;;;2.60;2.60;;;;;;;;5067670;28;8872;-81
2021/08/24 10:41:31;;;;;;;;;3.40;2.00;;;;;;;;5063991;28;8910;-75
2021/08/24 10:44:00;;;;;;;;;1.60;1.60;;;;;;;;5045592;28;8872;-80
2021/08/24 10:46:30;;;;;;;;;2.00;2.00;;;;;;;;5065154;28;8871;-76
2021/08/24 10:48:58;;;;;;;;;1.60;1.60;;;;;;;;5058180;28;8875;-77
2021/08/24 10:51:37;;;;;;;;;1.60;1.60;;;;;;;;5054594;28;8856;-80
2021/08/24 10:54:19;;;;;;;;;2.00;2.00;;;;;;;;5063384;28;8848;-79
2021/08/24 10:56:51;;;;;;;;;1.60;1.60;;;;;;;;5052311;28;9001;-76
2021/08/24 10:59:27;;;;;;;;;3.00;3.00;;;;;;;;5059538;28;8888;-76
2021/08/24 11:01:58;;;;;;;;;2.80;2.80;;;;;;;;5061554;28;8820;-76
2021/08/24 11:04:46;;;;;;;;;4.80;4.80;;;;;;;;5055050;28;8872;-77
2021/08/24 11:07:28;;;;;;;;;2.80;2.60;;;;;;;;5053269;28;8895;-79
2021/08/24 11:10:00;;;;;;;;;3.60;1.80;;;;;;;;5046492;28;8871;-75
2021/08/24 11:12:35;;;;;;;;;2.40;2.40;;;;;;;;5060407;28;8983;-78
2021/08/24 11:15:11;;;;;;;;;1.60;1.60;;;;;;;;5052038;28;8875;-77
2021/08/24 11:17:44;;;;;;;;;3.00;3.00;;;;;;;;5047611;28;8883;-77
2021/08/24 11:20:22;;;;;;;;;4.20;2.80;;;;;;;;5049183;28;8877;-77
2021/08/24 11:23:06;;;;;;;;;1.80;1.80;;;;;;;;5053720;28;8992;-78
2021/08/24 11:25:42;;;;;;;;;3.60;3.60;;;;;;;;5059689;28;8898;-77
2021/08/24 11:28:17;;;;;;;;;2.00;2.00;;;;;;;;5056865;28;8953;-78
2021/08/24 11:30:45;;;;;;;;;4.00;4.00;;;;;;;;5046233;28;8818;-80
2021/08/24 11:33:17;;;;;;;;;2.00;2.00;;;;;;;;5061718;28;8874;-79
2021/08/24 11:35:50;;;;;;;;;2.40;2.40;;;;;;;;5055044;28;8894;-79
2021/08/24 11:38:20;;;;;;;;;2.80;2.80;;;;;;;;5056136;28;8834;-78
2021/08/24 11:40:57;;;;;;;;;3.80;2.40;;;;;;;;5049970;28;8873;-79
2021/08/24 11:43:30;;;;;;;;;2.80;1.60;;;;;;;;5060416;28;9739;-80
2021/08/24 11:46:02;;;;;;;;;2.80;2.80;;;;;;;;5066351;28;8907;-79
2021/08/24 11:48:32;;;;;;;;;4.60;4.00;;;;;;;;5067384;28;8872;-80
2021/08/24 11:51:07;;;;;;;;;3.00;3.00;;;;;;;;5071465;28;8868;-79
2021/08/24 11:53:40;;;;;;;;;1.80;1.80;;;;;;;;5065443;28;9780;-80
2021/08/24 11:56:13;;;;;;;;;2.60;2.60;;;;;;;;5066650;28;8868;-79
2021/08/24 11:58:46;;;;;;;;;2.20;2.20;;;;;;;;5079574;28;8864;-78
2021/08/24 12:01:19;;;;;;;;;2.60;1.80;;;;;;;;5066640;28;8827;-79
2021/08/24 12:03:50;;;;;;;;;2.80;2.80;;;;;;;;5067538;28;8876;-79
2021/08/24 12:06:23;;;;;;;;;2.00;2.00;;;;;;;;5059462;28;8878;-79
2021/08/24 12:08:53;;;;;;;;;1.80;1.80;;;;;;;;5079089;28;8849;-79
2021/08/24 12:11:24;;;;;;;;;1.20;1.20;;;;;;;;5065781;28;8876;-79
2021/08/24 12:13:53;;;;;;;;;2.00;2.00;;;;;;;;5056502;28;8875;-78
2021/08/24 12:16:31;;;;;;;;;1.20;1.20;;;;;;;;5066087;28;8945;-79
2021/08/24 12:19:19;;;;;;;;;3.40;2.00;;;;;;;;5066381;28;8896;-79
2021/08/24 12:21:50;;;;;;;;;3.00;3.00;;;;;;;;5066815;28;8875;-78
2021/08/24 12:24:57;;;;;;;;;2.80;2.80;;;;;;;;5064637;28;9700;-80
2021/08/24 12:27:59;;;;;;;;;1.60;1.60;;;;;;;;5023879;28;9719;-78
2021/08/24 12:30:30;;;;;;;;;2.00;2.00;;;;;;;;5028693;28;8779;-79
2021/08/24 12:33:13;;;;;;;;;1.80;1.80;;;;;;;;5065677;28;8874;-77
2021/08/24 12:35:42;;;;;;;;;2.60;2.60;;;;;;;;5066834;28;8876;-80
2021/08/24 12:38:31;;;;;;;;;1.80;1.80;;;;;;;;5065986;28;8864;-79
2021/08/24 12:40:59;;;;;;;;;2.60;2.60;;;;;;;;5065428;28;8876;-80
2021/08/24 12:43:46;;;;;;;;;2.20;2.20;;;;;;;;5066474;28;8882;-78
2021/08/24 12:46:41;;;;;;;;;1.60;1.60;;;;;;;;5046161;28;8910;-81
2021/08/24 12:49:41;;;;;;;;;1.80;1.80;;;;;;;;5042137;28;8896;-79
2021/08/24 12:52:31;;;;;;;;;1.20;1.20;;;;;;;;5023752;28;8867;-75
2021/08/24 12:55:04;;;;;;;;;3.40;1.60;;;;;;;;5019903;28;9723;-80
2021/08/24 12:57:34;;;;;;;;;2.00;2.00;;;;;;;;5051240;28;8876;-80
2021/08/24 13:00:22;;;;;;;;;1.20;1.20;;;;;;;;5065910;28;8863;-80
2021/08/24 13:02:59;;;;;;;;;2.20;2.20;;;;;;;;5078037;28;8843;-79
2021/08/24 13:05:28;;;;;;;;;3.00;1.40;;;;;;;;5079428;28;8866;-80
2021/08/24 13:08:15;;;;;;;;;2.40;2.40;;;;;;;;5065149;28;8922;-79
2021/08/24 13:10:44;;;;;;;;;3.40;2.00;;;;;;;;5065825;28;8949;-80
2021/08/24 13:13:45;;;;;;;;;1.60;1.60;;;;;;;;5066212;28;8966;-79
2021/08/24 13:16:14;;;;;;;;;1.00;1.00;;;;;;;;5052402;28;8878;-80
2021/08/24 13:18:47;;;;;;;;;1.00;1.00;;;;;;;;5079261;28;8891;-81
2021/08/24 13:21:25;;;;;;;;;2.00;0.00;;;;;;;;5057851;28;8887;-77
2021/08/24 13:23:56;;;;;;;;;2.00;2.00;;;;;;;;5065776;28;8868;-81
2021/08/24 13:26:26;;;;;;;;;2.20;2.00;;;;;;;;5066368;28;8851;-75
2021/08/24 13:28:56;;;;;;;;;2.00;1.80;;;;;;;;5064603;28;8860;-78
2021/08/24 13:31:33;;;;;;;;;0.00;0.00;;;;;;;;5078260;28;8781;-77
2021/08/24 13:34:05;;;;;;;;;1.60;1.60;;;;;;;;5053112;28;8876;-81
2021/08/24 13:36:38;;;;;;;;;2.00;2.00;;;;;;;;5063746;28;8945;-81
2021/08/24 13:39:07;;;;;;;;;3.20;2.40;;;;;;;;5064636;28;8869;-81
2021/08/24 13:41:37;;;;;;;;;1.00;1.00;;;;;;;;5061122;28;8876;-80
2021/08/24 13:44:05;;;;;;;;;0.80;0.80;;;;;;;;5063627;28;8872;-80
2021/08/24 13:46:36;;;;;;;;;1.80;1.80;;;;;;;;5063896;28;8898;-80
2021/08/24 13:49:05;;;;;;;;;1.80;1.80;;;;;;;;5065256;28;9665;-81
2021/08/24 13:51:46;;;;;;;;;1.00;1.00;;;;;;;;5064335;28;8860;-79
2021/08/24 13:54:15;;;;;;;;;0.80;0.80;;;;;;;;5065943;28;8906;-76
2021/08/24 13:56:47;;;;;;;;;1.80;1.80;;;;;;;;5053095;28;8884;-77
2021/08/24 13:59:21;;;;;;;;;2.60;2.60;;;;;;;;5065124;28;8880;-80
2021/08/24 14:01:50;;;;;;;;;1.20;1.20;;;;;;;;5064769;28;8825;-80
2021/08/24 14:04:23;;;;;;;;;2.20;2.20;;;;;;;;5063880;28;8879;-77
2021/08/24 14:06:53;;;;;;;;;2.40;1.60;;;;;;;;5065007;28;8923;-78
2021/08/24 14:09:26;;;;;;;;;1.40;1.40;;;;;;;;5064304;28;8856;-79
2021/08/24 14:11:56;;;;;;;;;2.40;2.40;;;;;;;;5063581;28;8906;-79
2021/08/24 14:14:37;;;;;;;;;1.80;1.80;;;;;;;;5064834;28;8974;-81
2021/08/24 14:17:07;;;;;;;;;1.60;1.60;;;;;;;;5063270;28;8896;-81
2021/08/24 14:19:37;;;;;;;;;2.20;2.20;;;;;;;;5064714;28;8878;-79
2021/08/24 14:22:11;;;;;;;;;2.20;2.20;;;;;;;;5064254;28;8977;-80
2021/08/24 14:24:38;;;;;;;;;2.40;1.80;;;;;;;;5064011;28;8880;-78
2021/08/24 14:27:06;;;;;;;;;1.20;1.20;;;;;;;;5064756;28;8957;-80
2021/08/24 14:29:36;;;;;;;;;2.40;2.40;;;;;;;;5055164;28;8888;-80
2021/08/24 14:32:08;;;;;;;;;3.20;2.00;;;;;;;;5063495;28;8801;-80
2021/08/24 14:34:41;;;;;;;;;2.00;2.00;;;;;;;;5075529;28;8950;-80
2021/08/24 14:37:15;;;;;;;;;0.80;0.80;;;;;;;;5067517;28;8868;-80
2021/08/24 14:39:54;;;;;;;;;2.80;2.80;;;;;;;;5062747;28;8844;-82
2021/08/24 14:42:30;;;;;;;;;3.80;3.80;;;;;;;;5063589;28;8888;-79
2021/08/24 14:45:00;;;;;;;;;2.20;2.20;;;;;;;;5063540;28;8864;-80
2021/08/24 14:47:34;;;;;;;;;1.00;1.00;;;;;;;;5074315;28;8892;-80
2021/08/24 14:50:03;;;;;;;;;3.80;3.80;;;;;;;;5065867;28;8895;-79
2021/08/24 14:52:33;;;;;;;;;2.40;2.40;;;;;;;;5063593;28;8874;-80
2021/08/24 14:55:05;;;;;;;;;2.00;2.00;;;;;;;;5062406;28;8891;-80
2021/08/24 14:57:43;;;;;;;;;3.80;2.60;;;;;;;;5064509;28;8848;-79
2021/08/24 15:00:30;;;;;;;;;2.60;2.60;;;;;;;;5071355;28;8857;-79
2021/08/24 15:03:01;;;;;;;;;1.00;1.00;;;;;;;;5065458;28;8883;-80
2021/08/24 15:05:32;;;;;;;;;6.00;3.00;;;;;;;;5063585;28;8920;-80